createdAt,value
2019-05-29T00:01:13.000Z,281.62
2019-05-29T00:02:52.000Z,281.67
2019-05-29T00:04:56.000Z,281.72
2019-05-29T00:06:28.000Z,281.76
2019-05-29T00:08:33.000Z,281.82
2019-05-29T00:10:06.000Z,281.88
2019-05-29T00:12:13.000Z,281.99
2019-05-29T00:13:52.000Z,282.09
2019-05-29T00:15:57.000Z,282.12
2019-05-29T00:17:27.000Z,282.17
2019-05-29T00:19:35.000Z,282.21
2019-05-29T00:21:04.000Z,282.28
2019-05-29T00:23:16.000Z,282.29
2019-05-29T00:24:43.000Z,282.32
2019-05-29T00:26:50.000Z,282.37
2019-05-29T00:28:18.000Z,282.4
2019-05-29T00:30:27.000Z,282.41
2019-05-29T00:31:57.000Z,282.42
2019-05-29T00:34:08.000Z,282.41
2019-05-29T00:35:39.000Z,282.43
2019-05-29T00:37:49.000Z,282.5
2019-05-29T00:39:22.000Z,282.52
2019-05-29T00:41:35.000Z,282.54
2019-05-29T00:43:07.000Z,282.61
2019-05-29T00:45:18.000Z,282.62
2019-05-29T00:46:46.000Z,282.65
2019-05-29T00:48:55.000Z,282.65
2019-05-29T00:50:24.000Z,282.65
2019-05-29T00:52:38.000Z,282.66
2019-05-29T00:54:05.000Z,282.68
2019-05-29T00:56:17.000Z,282.71
2019-05-29T00:57:45.000Z,282.74
2019-05-29T00:59:54.000Z,282.78
2019-05-29T01:01:23.000Z,282.79
2019-05-29T01:03:27.000Z,282.82
2019-05-29T01:04:57.000Z,282.83
2019-05-29T01:07:13.000Z,282.84
2019-05-29T01:08:39.000Z,282.86
2019-05-29T01:10:47.000Z,282.87
2019-05-29T01:12:19.000Z,282.86
2019-05-29T01:14:29.000Z,282.87
2019-05-29T01:16:02.000Z,282.89
2019-05-29T01:18:13.000Z,282.89
2019-05-29T01:19:41.000Z,282.92
2019-05-29T01:21:47.000Z,282.9
2019-05-29T01:23:16.000Z,282.92
2019-05-29T01:25:25.000Z,282.91
2019-05-29T01:26:56.000Z,282.9
2019-05-29T01:30:16.000Z,282.93
2019-05-29T01:31:39.000Z,282.95
2019-05-29T01:33:40.000Z,282.96
2019-05-29T01:35:02.000Z,282.94
2019-05-29T01:37:03.000Z,282.95
2019-05-29T01:38:25.000Z,282.94
2019-05-29T01:40:26.000Z,282.95
2019-05-29T01:41:52.000Z,282.9
2019-05-29T01:43:53.000Z,282.91
2019-05-29T01:45:20.000Z,282.9
2019-05-29T01:47:22.000Z,282.87
2019-05-29T01:48:45.000Z,282.86
2019-05-29T01:50:46.000Z,282.85
2019-05-29T01:52:10.000Z,282.85
2019-05-29T01:54:11.000Z,282.83
2019-05-29T01:55:33.000Z,282.83
2019-05-29T01:57:33.000Z,282.85
2019-05-29T01:58:55.000Z,282.85
2019-05-29T02:00:57.000Z,282.8
2019-05-29T02:02:19.000Z,282.82
2019-05-29T02:04:20.000Z,282.79
2019-05-29T02:05:43.000Z,282.78
2019-05-29T02:07:45.000Z,282.74
2019-05-29T02:09:07.000Z,282.71
2019-05-29T02:11:08.000Z,282.67
2019-05-29T02:12:30.000Z,282.67
2019-05-29T02:14:32.000Z,282.66
2019-05-29T02:15:54.000Z,282.67
2019-05-29T02:17:56.000Z,282.63
2019-05-29T02:19:19.000Z,282.58
2019-05-29T02:21:23.000Z,282.58
2019-05-29T02:22:46.000Z,282.53
2019-05-29T02:24:52.000Z,282.5
2019-05-29T02:26:14.000Z,282.5
2019-05-29T02:28:16.000Z,282.5
2019-05-29T02:29:38.000Z,282.46
2019-05-29T02:31:40.000Z,282.51
2019-05-29T02:33:03.000Z,282.51
2019-05-29T02:35:04.000Z,282.51
2019-05-29T02:36:26.000Z,282.49
2019-05-29T02:38:29.000Z,282.51
2019-05-29T02:39:51.000Z,282.49
2019-05-29T02:41:52.000Z,282.47
2019-05-29T02:43:16.000Z,282.44
2019-05-29T02:45:18.000Z,282.4
2019-05-29T02:46:41.000Z,282.41
2019-05-29T02:48:42.000Z,282.38
2019-05-29T02:50:06.000Z,282.37
2019-05-29T02:52:09.000Z,282.34
2019-05-29T02:53:32.000Z,282.31
2019-05-29T02:55:33.000Z,282.29
2019-05-29T02:56:55.000Z,282.29
2019-05-29T02:58:56.000Z,282.29
2019-05-29T03:00:18.000Z,282.27
2019-05-29T03:02:22.000Z,282.28
2019-05-29T03:03:46.000Z,282.27
2019-05-29T03:05:48.000Z,282.29
2019-05-29T03:07:10.000Z,282.25
2019-05-29T03:09:12.000Z,282.29
2019-05-29T03:10:37.000Z,282.31
2019-05-29T03:12:40.000Z,282.3
2019-05-29T03:14:04.000Z,282.29
2019-05-29T03:16:05.000Z,282.25
2019-05-29T03:17:36.000Z,282.27
2019-05-29T03:19:39.000Z,282.29
2019-05-29T03:21:02.000Z,282.24
2019-05-29T03:23:04.000Z,282.22
2019-05-29T03:24:26.000Z,282.23
2019-05-29T03:26:31.000Z,282.22
2019-05-29T03:28:01.000Z,282.16
2019-05-29T03:30:05.000Z,282.14
2019-05-29T03:31:28.000Z,282.14
2019-05-29T03:33:40.000Z,282.13
2019-05-29T03:35:12.000Z,282.19
2019-05-29T03:37:14.000Z,282.18
2019-05-29T03:38:37.000Z,282.14
2019-05-29T03:40:40.000Z,282.21
2019-05-29T03:42:02.000Z,282.24
2019-05-29T03:44:06.000Z,282.23
2019-05-29T03:45:34.000Z,282.17
2019-05-29T03:47:41.000Z,282.16
2019-05-29T03:49:03.000Z,282.16
2019-05-29T03:51:09.000Z,282.14
2019-05-29T03:52:34.000Z,282.17
2019-05-29T03:54:38.000Z,282.11
2019-05-29T03:56:06.000Z,282.09
2019-05-29T03:58:11.000Z,282.06
2019-05-29T03:59:35.000Z,282.09
2019-05-29T04:01:40.000Z,282.12
2019-05-29T04:03:02.000Z,282.1
2019-05-29T04:05:06.000Z,282.09
2019-05-29T04:06:29.000Z,282.06
2019-05-29T04:08:32.000Z,282.04
2019-05-29T04:10:02.000Z,282.01
2019-05-29T04:12:12.000Z,282.02
2019-05-29T04:13:34.000Z,282.04
2019-05-29T04:15:40.000Z,282.07
2019-05-29T04:17:08.000Z,282.04
2019-05-29T04:19:15.000Z,282.04
2019-05-29T04:20:40.000Z,282.05
2019-05-29T04:22:46.000Z,282.04
2019-05-29T04:24:12.000Z,282.07
2019-05-29T04:26:17.000Z,282.04
2019-05-29T04:27:46.000Z,282.11
2019-05-29T04:29:55.000Z,282.15
2019-05-29T04:31:23.000Z,282.16
2019-05-29T04:33:28.000Z,282.07
2019-05-29T04:34:56.000Z,282.12
2019-05-29T04:37:03.000Z,282.19
2019-05-29T04:38:32.000Z,282.13
2019-05-29T04:40:44.000Z,282.09
2019-05-29T04:42:08.000Z,282.1
2019-05-29T04:44:18.000Z,282.09
2019-05-29T04:45:45.000Z,282.13
2019-05-29T04:47:51.000Z,282.15
2019-05-29T04:49:13.000Z,282.15
2019-05-29T04:51:18.000Z,282.13
2019-05-29T04:52:46.000Z,282.17
2019-05-29T04:54:56.000Z,282.19
2019-05-29T04:56:21.000Z,282.19
2019-05-29T04:58:27.000Z,282.21
2019-05-29T04:59:55.000Z,282.16
2019-05-29T05:02:02.000Z,282.17
2019-05-29T05:03:32.000Z,282.21
2019-05-29T05:05:43.000Z,282.2
2019-05-29T05:07:09.000Z,282.22
2019-05-29T05:09:23.000Z,282.17
2019-05-29T05:10:56.000Z,282.26
2019-05-29T05:13:11.000Z,282.3
2019-05-29T05:14:42.000Z,282.33
2019-05-29T05:16:48.000Z,282.36
2019-05-29T05:18:15.000Z,282.49
2019-05-29T05:20:27.000Z,282.62
2019-05-29T05:21:59.000Z,282.7
2019-05-29T05:24:07.000Z,282.83
2019-05-29T05:25:32.000Z,282.9
2019-05-29T05:27:41.000Z,282.96
2019-05-29T05:29:13.000Z,283.03
2019-05-29T05:31:23.000Z,283.11
2019-05-29T05:32:55.000Z,283.31
2019-05-29T05:35:06.000Z,283.35
2019-05-29T05:36:36.000Z,283.36
2019-05-29T05:38:44.000Z,283.46
2019-05-29T05:40:16.000Z,283.65
2019-05-29T05:42:27.000Z,283.59
2019-05-29T05:43:57.000Z,283.59
2019-05-29T05:46:10.000Z,283.54
2019-05-29T05:47:42.000Z,283.44
2019-05-29T05:50:10.000Z,283.19
2019-05-29T05:51:39.000Z,283.36
2019-05-29T05:53:56.000Z,283.46
2019-05-29T05:55:30.000Z,283.49
2019-05-29T05:57:41.000Z,283.45
2019-05-29T05:59:10.000Z,283.38
2019-05-29T06:01:22.000Z,283.56
2019-05-29T06:02:51.000Z,283.57
2019-05-29T06:05:00.000Z,283.45
2019-05-29T06:06:31.000Z,283.27
2019-05-29T06:08:39.000Z,283.33
2019-05-29T06:10:11.000Z,283.39
2019-05-29T06:12:20.000Z,283.39
2019-05-29T06:13:50.000Z,283.37
2019-05-29T06:15:56.000Z,283.45
2019-05-29T06:17:28.000Z,283.53
2019-05-29T06:20:51.000Z,283.28
2019-05-29T06:22:13.000Z,283.37
2019-05-29T06:24:14.000Z,283.45
2019-05-29T06:25:36.000Z,283.41
2019-05-29T06:27:39.000Z,283.46
2019-05-29T06:29:03.000Z,283.45
2019-05-29T06:31:04.000Z,283.47
2019-05-29T06:32:26.000Z,283.53
2019-05-29T06:34:27.000Z,283.53
2019-05-29T06:35:49.000Z,283.73
2019-05-29T06:37:50.000Z,283.67
2019-05-29T06:39:12.000Z,283.63
2019-05-29T06:41:14.000Z,283.61
2019-05-29T06:42:36.000Z,283.65
2019-05-29T06:44:37.000Z,283.7
2019-05-29T06:46:03.000Z,283.75
2019-05-29T06:48:05.000Z,283.9
2019-05-29T06:49:27.000Z,284.16
2019-05-29T06:51:28.000Z,284.1
2019-05-29T06:52:51.000Z,284.17
2019-05-29T06:54:52.000Z,284.13
2019-05-29T06:56:14.000Z,284.16
2019-05-29T06:58:17.000Z,284.13
2019-05-29T06:59:39.000Z,284.15
2019-05-29T07:01:41.000Z,284.1
2019-05-29T07:03:03.000Z,284.24
2019-05-29T07:05:04.000Z,284.32
2019-05-29T07:06:28.000Z,284.42
2019-05-29T07:08:29.000Z,284.47
2019-05-29T07:10:05.000Z,284.48
2019-05-29T07:12:06.000Z,284.63
2019-05-29T07:13:30.000Z,284.68
2019-05-29T07:15:37.000Z,284.87
2019-05-29T07:17:00.000Z,284.87
2019-05-29T07:19:02.000Z,284.8
2019-05-29T07:20:49.000Z,284.97
2019-05-29T07:22:53.000Z,284.98
2019-05-29T07:24:17.000Z,285.02
2019-05-29T07:26:20.000Z,285.15
2019-05-29T07:27:43.000Z,285.21
2019-05-29T07:29:47.000Z,285.09
2019-05-29T07:31:10.000Z,285.19
2019-05-29T07:33:12.000Z,285.31
2019-05-29T07:34:35.000Z,285.25
2019-05-29T07:37:03.000Z,285.41
2019-05-29T07:38:28.000Z,285.43
2019-05-29T07:40:30.000Z,285.23
2019-05-29T07:41:52.000Z,285.26
2019-05-29T07:43:56.000Z,285.3
2019-05-29T07:45:20.000Z,285.45
2019-05-29T07:47:21.000Z,285.35
2019-05-29T07:48:44.000Z,285.34
2019-05-29T07:50:48.000Z,285.5
2019-05-29T07:52:10.000Z,285.68
2019-05-29T07:54:12.000Z,285.86
2019-05-29T07:55:37.000Z,285.89
2019-05-29T07:57:41.000Z,285.82
2019-05-29T07:59:07.000Z,285.84
2019-05-29T08:01:09.000Z,285.81
2019-05-29T08:02:37.000Z,285.7
2019-05-29T08:04:42.000Z,285.78
2019-05-29T08:06:04.000Z,285.72
2019-05-29T08:08:06.000Z,285.82
2019-05-29T08:09:31.000Z,285.84
2019-05-29T08:11:34.000Z,285.71
2019-05-29T08:12:56.000Z,285.67
2019-05-29T08:15:01.000Z,285.64
2019-05-29T08:16:25.000Z,285.5
2019-05-29T08:18:30.000Z,285.55
2019-05-29T08:19:55.000Z,285.5
2019-05-29T08:22:11.000Z,285.39
2019-05-29T08:23:39.000Z,285.54
2019-05-29T08:25:41.000Z,285.51
2019-05-29T08:27:03.000Z,285.74
2019-05-29T08:29:07.000Z,285.85
2019-05-29T08:30:33.000Z,286.22
2019-05-29T08:32:36.000Z,286.61
2019-05-29T08:33:58.000Z,286.58
2019-05-29T08:36:03.000Z,286.51
2019-05-29T08:37:28.000Z,286.5
2019-05-29T08:39:34.000Z,286.59
2019-05-29T08:40:59.000Z,286.63
2019-05-29T08:43:05.000Z,286.73
2019-05-29T08:44:28.000Z,286.66
2019-05-29T08:46:32.000Z,286.63
2019-05-29T08:47:59.000Z,286.6
2019-05-29T08:50:03.000Z,286.83
2019-05-29T08:51:47.000Z,287.34
2019-05-29T08:53:57.000Z,287.89
2019-05-29T08:55:25.000Z,287.95
2019-05-29T08:57:32.000Z,288.07
2019-05-29T08:58:57.000Z,288.26
2019-05-29T09:01:07.000Z,288.4
2019-05-29T09:02:37.000Z,288.34
2019-05-29T09:04:39.000Z,288.09
2019-05-29T09:06:09.000Z,287.91
2019-05-29T09:08:16.000Z,287.59
2019-05-29T09:09:40.000Z,287.32
2019-05-29T09:11:47.000Z,287.3
2019-05-29T09:13:13.000Z,287.35
2019-05-29T09:15:20.000Z,287.44
2019-05-29T09:16:48.000Z,287.46
2019-05-29T09:18:54.000Z,287.26
2019-05-29T09:20:19.000Z,287.15
2019-05-29T09:22:47.000Z,287.2
2019-05-29T09:24:16.000Z,287.37
2019-05-29T09:26:20.000Z,287.55
2019-05-29T09:27:51.000Z,287.73
2019-05-29T09:29:55.000Z,287.78
2019-05-29T09:31:19.000Z,287.65
2019-05-29T09:33:28.000Z,287.65
2019-05-29T09:34:53.000Z,287.64
2019-05-29T09:37:00.000Z,287.48
2019-05-29T09:38:25.000Z,287.85
2019-05-29T09:40:33.000Z,288.32
2019-05-29T09:42:01.000Z,288.32
2019-05-29T09:44:05.000Z,288.22
2019-05-29T09:45:35.000Z,288.35
2019-05-29T09:47:42.000Z,288.25
2019-05-29T09:49:10.000Z,288.07
2019-05-29T09:51:19.000Z,288.21
2019-05-29T09:52:51.000Z,288.5
2019-05-29T09:55:00.000Z,288.4
2019-05-29T09:56:24.000Z,288.64
2019-05-29T10:00:03.000Z,288.94
2019-05-29T10:00:37.000Z,288.98
2019-05-29T10:02:09.000Z,289.13
2019-05-29T10:04:20.000Z,289.05
2019-05-29T10:05:51.000Z,289.1
2019-05-29T10:08:06.000Z,289.11
2019-05-29T10:09:37.000Z,289.3
2019-05-29T10:11:44.000Z,289.43
2019-05-29T10:13:17.000Z,289.64
2019-05-29T10:15:28.000Z,289.95
2019-05-29T10:16:56.000Z,290.09
2019-05-29T10:19:06.000Z,290.22
2019-05-29T10:20:33.000Z,289.82
2019-05-29T10:22:35.000Z,289.71
2019-05-29T10:24:06.000Z,289.69
2019-05-29T10:26:20.000Z,289.27
2019-05-29T10:27:49.000Z,289.12
2019-05-29T10:30:02.000Z,289.25
2019-05-29T10:31:36.000Z,289.18
2019-05-29T10:33:46.000Z,289.12
2019-05-29T10:35:18.000Z,289.35
2019-05-29T10:37:27.000Z,289.94
2019-05-29T10:39:05.000Z,290.22
2019-05-29T10:41:18.000Z,290.38
2019-05-29T10:42:45.000Z,290.68
2019-05-29T10:44:52.000Z,290.61
2019-05-29T10:46:23.000Z,290.47
2019-05-29T10:48:33.000Z,290.54
2019-05-29T10:50:03.000Z,290.25
2019-05-29T10:52:18.000Z,290.74
2019-05-29T10:53:49.000Z,291.06
2019-05-29T10:56:03.000Z,291.02
2019-05-29T10:57:34.000Z,290.51
2019-05-29T10:59:43.000Z,290.29
2019-05-29T11:01:13.000Z,290.19
2019-05-29T11:03:24.000Z,289.89
2019-05-29T11:04:52.000Z,289.53
2019-05-29T11:07:09.000Z,289.53
2019-05-29T11:08:38.000Z,289.32
2019-05-29T11:12:06.000Z,289.45
2019-05-29T11:13:28.000Z,290.04
2019-05-29T11:15:29.000Z,290.38
2019-05-29T11:16:51.000Z,290.44
2019-05-29T11:18:52.000Z,290.27
2019-05-29T11:20:15.000Z,289.87
2019-05-29T11:22:16.000Z,290.34
2019-05-29T11:23:48.000Z,291.06
2019-05-29T11:25:51.000Z,291.39
2019-05-29T11:27:13.000Z,291.66
2019-05-29T11:29:14.000Z,291.63
2019-05-29T11:30:36.000Z,291.4
2019-05-29T11:32:37.000Z,291.08
2019-05-29T11:33:59.000Z,290.57
2019-05-29T11:36:00.000Z,290.39
2019-05-29T11:37:34.000Z,290.49
2019-05-29T11:39:36.000Z,290.53
2019-05-29T11:40:58.000Z,290.37
2019-05-29T11:43:26.000Z,290.1
2019-05-29T11:44:49.000Z,290.18
2019-05-29T11:46:53.000Z,290.09
2019-05-29T11:48:16.000Z,289.75
2019-05-29T11:50:17.000Z,289.81
2019-05-29T11:51:42.000Z,290.28
2019-05-29T11:53:46.000Z,290.63
2019-05-29T11:55:08.000Z,290.97
2019-05-29T11:57:09.000Z,291.16
2019-05-29T11:58:32.000Z,291.24
2019-05-29T12:00:34.000Z,291.33
2019-05-29T12:01:56.000Z,291.39
2019-05-29T12:04:00.000Z,291.61
2019-05-29T12:05:44.000Z,291.92
2019-05-29T12:07:45.000Z,292.21
2019-05-29T12:09:07.000Z,292.35
2019-05-29T12:11:10.000Z,292.23
2019-05-29T12:12:32.000Z,292.45
2019-05-29T12:14:35.000Z,292.33
2019-05-29T12:16:22.000Z,292.6
2019-05-29T12:18:23.000Z,292.26
2019-05-29T12:19:47.000Z,291.4
2019-05-29T12:21:51.000Z,291.25
2019-05-29T12:23:15.000Z,290.85
2019-05-29T12:25:29.000Z,290.64
2019-05-29T12:26:53.000Z,290.14
2019-05-29T12:28:55.000Z,290.07
2019-05-29T12:30:32.000Z,290.36
2019-05-29T12:32:33.000Z,290.43
2019-05-29T12:33:58.000Z,290.35
2019-05-29T12:36:13.000Z,290.63
2019-05-29T12:37:35.000Z,290.64
2019-05-29T12:39:37.000Z,290.35
2019-05-29T12:41:00.000Z,290.73
2019-05-29T12:43:02.000Z,290.78
2019-05-29T12:44:27.000Z,290.64
2019-05-29T12:46:30.000Z,291.14
2019-05-29T12:47:52.000Z,291.82
2019-05-29T12:49:56.000Z,292.16
2019-05-29T12:51:22.000Z,292.5
2019-05-29T12:53:24.000Z,292.58
2019-05-29T12:54:53.000Z,292.76
2019-05-29T12:56:58.000Z,292.83
2019-05-29T12:58:22.000Z,292.51
2019-05-29T13:00:23.000Z,292.03
2019-05-29T13:01:47.000Z,291.74
2019-05-29T13:03:51.000Z,291.61
2019-05-29T13:05:18.000Z,291.51
2019-05-29T13:07:26.000Z,291.25
2019-05-29T13:08:50.000Z,291.15
2019-05-29T13:10:51.000Z,291.13
2019-05-29T13:12:13.000Z,291.09
2019-05-29T13:14:16.000Z,290.97
2019-05-29T13:15:40.000Z,291.06
2019-05-29T13:17:47.000Z,291
2019-05-29T13:19:13.000Z,291.03
2019-05-29T13:21:17.000Z,290.9
2019-05-29T13:22:43.000Z,290.78
2019-05-29T13:24:47.000Z,290.72
2019-05-29T13:26:12.000Z,290.73
2019-05-29T13:28:14.000Z,290.68
2019-05-29T13:29:42.000Z,290.53
2019-05-29T13:31:43.000Z,290.49
2019-05-29T13:33:07.000Z,290.98
2019-05-29T13:35:12.000Z,291.76
2019-05-29T13:36:35.000Z,292.12
2019-05-29T13:38:37.000Z,292.51
2019-05-29T13:40:03.000Z,292.83
2019-05-29T13:42:14.000Z,292.88
2019-05-29T13:43:38.000Z,292.81
2019-05-29T13:45:42.000Z,292.82
2019-05-29T13:47:07.000Z,292.62
2019-05-29T13:49:11.000Z,292.58
2019-05-29T13:50:35.000Z,292.91
2019-05-29T13:52:38.000Z,293.04
2019-05-29T13:54:06.000Z,293.02
2019-05-29T13:56:21.000Z,293.31
2019-05-29T13:57:50.000Z,293.42
2019-05-29T13:59:52.000Z,293.21
2019-05-29T14:01:18.000Z,293.21
2019-05-29T14:03:25.000Z,293.51
2019-05-29T14:04:50.000Z,293.65
2019-05-29T14:06:52.000Z,293.69
2019-05-29T14:08:20.000Z,293.9
2019-05-29T14:10:28.000Z,293.66
2019-05-29T14:11:54.000Z,293.83
2019-05-29T14:14:02.000Z,293.91
2019-05-29T14:15:33.000Z,293.91
2019-05-29T14:17:35.000Z,293.84
2019-05-29T14:18:59.000Z,293.85
2019-05-29T14:21:02.000Z,293.85
2019-05-29T14:22:30.000Z,294.16
2019-05-29T14:24:34.000Z,294.23
2019-05-29T14:26:02.000Z,294.43
2019-05-29T14:28:10.000Z,294.64
2019-05-29T14:29:35.000Z,294.6
2019-05-29T14:31:38.000Z,294.64
2019-05-29T14:33:04.000Z,294.43
2019-05-29T14:35:11.000Z,294.63
2019-05-29T14:36:44.000Z,294.3
2019-05-29T14:38:55.000Z,293.42
2019-05-29T14:40:22.000Z,293.38
2019-05-29T14:42:29.000Z,293.01
2019-05-29T14:43:58.000Z,292.9
2019-05-29T14:46:03.000Z,293.02
2019-05-29T14:47:33.000Z,292.83
2019-05-29T14:49:34.000Z,293.07
2019-05-29T14:51:02.000Z,293.48
2019-05-29T14:53:09.000Z,293.53
2019-05-29T14:54:39.000Z,293.83
2019-05-29T14:56:48.000Z,294.04
2019-05-29T14:58:12.000Z,294.05
2019-05-29T15:00:20.000Z,294.4
2019-05-29T15:01:56.000Z,294.16
2019-05-29T15:04:07.000Z,294.28
2019-05-29T15:05:34.000Z,294.68
2019-05-29T15:07:39.000Z,294.72
2019-05-29T15:09:05.000Z,294.6
2019-05-29T15:11:15.000Z,294.62
2019-05-29T15:12:43.000Z,294.38
2019-05-29T15:14:54.000Z,293.91
2019-05-29T15:16:25.000Z,293.31
2019-05-29T15:18:34.000Z,293.85
2019-05-29T15:20:03.000Z,294.08
2019-05-29T15:22:17.000Z,293.98
2019-05-29T15:23:47.000Z,293.35
2019-05-29T15:25:59.000Z,293.21
2019-05-29T15:27:30.000Z,293.12
2019-05-29T15:29:41.000Z,293.28
2019-05-29T15:31:14.000Z,293.78
2019-05-29T15:33:23.000Z,294.27
2019-05-29T15:34:55.000Z,294.31
2019-05-29T15:37:07.000Z,294.36
2019-05-29T15:38:43.000Z,294.32
2019-05-29T15:40:52.000Z,294.36
2019-05-29T15:42:23.000Z,294.4
2019-05-29T15:44:33.000Z,293.79
2019-05-29T15:46:02.000Z,293.84
2019-05-29T15:48:12.000Z,294.24
2019-05-29T15:49:44.000Z,294.4
2019-05-29T15:51:53.000Z,293.98
2019-05-29T15:53:24.000Z,293.57
2019-05-29T15:55:35.000Z,294.02
2019-05-29T15:57:07.000Z,293.99
2019-05-29T15:59:23.000Z,294.25
2019-05-29T16:00:55.000Z,294.49
2019-05-29T16:04:17.000Z,294.61
2019-05-29T16:05:39.000Z,294.5
2019-05-29T16:07:40.000Z,294.58
2019-05-29T16:09:04.000Z,294.62
2019-05-29T16:11:08.000Z,294.51
2019-05-29T16:12:31.000Z,294.56
2019-05-29T16:14:32.000Z,294.66
2019-05-29T16:15:58.000Z,294.9
2019-05-29T16:17:59.000Z,294.87
2019-05-29T16:19:21.000Z,295.02
2019-05-29T16:21:23.000Z,295.06
2019-05-29T16:22:45.000Z,295
2019-05-29T16:24:46.000Z,295.15
2019-05-29T16:26:10.000Z,295.07
2019-05-29T16:28:11.000Z,294.55
2019-05-29T16:29:34.000Z,293.74
2019-05-29T16:31:35.000Z,294.43
2019-05-29T16:32:57.000Z,294.58
2019-05-29T16:34:59.000Z,294.63
2019-05-29T16:36:23.000Z,295
2019-05-29T16:38:24.000Z,295.03
2019-05-29T16:39:47.000Z,294.79
2019-05-29T16:41:49.000Z,294.47
2019-05-29T16:43:11.000Z,294.04
2019-05-29T16:45:12.000Z,294.47
2019-05-29T16:46:36.000Z,294.51
2019-05-29T16:48:38.000Z,294.96
2019-05-29T16:50:00.000Z,295.06
2019-05-29T16:52:01.000Z,295.2
2019-05-29T16:53:23.000Z,295.45
2019-05-29T16:55:24.000Z,295.36
2019-05-29T16:56:46.000Z,295.14
2019-05-29T16:58:47.000Z,295.26
2019-05-29T17:00:10.000Z,295.37
2019-05-29T17:02:12.000Z,295.49
2019-05-29T17:03:36.000Z,295.46
2019-05-29T17:05:37.000Z,295.3
2019-05-29T17:07:01.000Z,294.88
2019-05-29T17:09:02.000Z,294.71
2019-05-29T17:10:25.000Z,293.93
2019-05-29T17:12:28.000Z,293.6
2019-05-29T17:13:51.000Z,292.99
2019-05-29T17:15:54.000Z,292.67
2019-05-29T17:17:16.000Z,293.12
2019-05-29T17:19:17.000Z,293.12
2019-05-29T17:20:42.000Z,293.67
2019-05-29T17:22:44.000Z,294.01
2019-05-29T17:24:07.000Z,294.32
2019-05-29T17:26:09.000Z,294.48
2019-05-29T17:27:34.000Z,294.49
2019-05-29T17:29:35.000Z,294.62
2019-05-29T17:30:58.000Z,294.48
2019-05-29T17:33:04.000Z,294.2
2019-05-29T17:34:27.000Z,293.89
2019-05-29T17:36:30.000Z,293.62
2019-05-29T17:37:53.000Z,293.21
2019-05-29T17:39:55.000Z,292.97
2019-05-29T17:41:20.000Z,292.8
2019-05-29T17:43:21.000Z,292.54
2019-05-29T17:44:50.000Z,292.43
2019-05-29T17:46:52.000Z,292.43
2019-05-29T17:48:16.000Z,292.14
2019-05-29T17:50:19.000Z,292
2019-05-29T17:51:46.000Z,291.78
2019-05-29T17:53:48.000Z,291.72
2019-05-29T17:55:10.000Z,291.52
2019-05-29T17:57:12.000Z,291.53
2019-05-29T17:58:36.000Z,291.53
2019-05-29T18:00:38.000Z,291.29
2019-05-29T18:02:03.000Z,291.15
2019-05-29T18:04:05.000Z,291.06
2019-05-29T18:05:29.000Z,291.01
2019-05-29T18:07:32.000Z,290.84
2019-05-29T18:08:54.000Z,290.88
2019-05-29T18:10:55.000Z,290.81
2019-05-29T18:12:17.000Z,290.67
2019-05-29T18:14:20.000Z,290.63
2019-05-29T18:15:45.000Z,290.41
2019-05-29T18:17:47.000Z,290.25
2019-05-29T18:19:10.000Z,290.19
2019-05-29T18:21:12.000Z,290.13
2019-05-29T18:22:40.000Z,290
2019-05-29T18:24:42.000Z,289.91
2019-05-29T18:26:09.000Z,289.81
2019-05-29T18:28:15.000Z,289.69
2019-05-29T18:29:59.000Z,289.56
2019-05-29T18:32:07.000Z,289.41
2019-05-29T18:33:33.000Z,289.21
2019-05-29T18:35:36.000Z,289.02
2019-05-29T18:37:04.000Z,288.71
2019-05-29T18:39:06.000Z,288.51
2019-05-29T18:40:35.000Z,288.5
2019-05-29T18:42:38.000Z,288.32
2019-05-29T18:44:08.000Z,288.23
2019-05-29T18:46:14.000Z,287.91
2019-05-29T18:47:40.000Z,287.8
2019-05-29T18:49:46.000Z,287.59
2019-05-29T18:51:10.000Z,287.35
2019-05-29T18:53:17.000Z,287.16
2019-05-29T18:54:41.000Z,287.07
2019-05-29T18:56:50.000Z,286.88
2019-05-29T18:58:40.000Z,286.65
2019-05-29T19:00:50.000Z,286.57
2019-05-29T19:02:16.000Z,286.38
2019-05-29T19:04:22.000Z,286.24
2019-05-29T19:05:51.000Z,286.13
2019-05-29T19:07:58.000Z,285.89
2019-05-29T19:09:26.000Z,285.77
2019-05-29T19:11:37.000Z,285.6
2019-05-29T19:13:03.000Z,285.51
2019-05-29T19:15:11.000Z,285.41
2019-05-29T19:16:38.000Z,285.39
2019-05-29T19:18:42.000Z,285.39
2019-05-29T19:20:15.000Z,285.32
2019-05-29T19:22:24.000Z,285.19
2019-05-29T19:23:52.000Z,285.02
2019-05-29T19:26:02.000Z,284.89
2019-05-29T19:27:33.000Z,284.75
2019-05-29T19:29:49.000Z,284.61
2019-05-29T19:31:15.000Z,284.53
2019-05-29T19:33:23.000Z,284.5
2019-05-29T19:34:50.000Z,284.39
2019-05-29T19:37:08.000Z,284.22
2019-05-29T19:38:36.000Z,284.28
2019-05-29T19:40:43.000Z,284.23
2019-05-29T19:44:15.000Z,284.16
2019-05-29T19:45:38.000Z,284.15
2019-05-29T19:47:40.000Z,284.02
2019-05-29T19:49:02.000Z,283.91
2019-05-29T19:51:09.000Z,283.8
2019-05-29T19:52:31.000Z,283.65
2019-05-29T19:54:32.000Z,283.55
2019-05-29T19:55:55.000Z,283.53
2019-05-29T19:57:56.000Z,283.47
2019-05-29T19:59:19.000Z,283.39
2019-05-29T20:01:22.000Z,283.32
2019-05-29T20:02:58.000Z,283.24
2019-05-29T20:04:59.000Z,283.14
2019-05-29T20:06:21.000Z,283.1
2019-05-29T20:08:22.000Z,283.02
2019-05-29T20:09:44.000Z,282.94
2019-05-29T20:11:45.000Z,283
2019-05-29T20:13:09.000Z,283
2019-05-29T20:15:10.000Z,282.89
2019-05-29T20:16:32.000Z,282.83
2019-05-29T20:18:34.000Z,282.76
2019-05-29T20:19:56.000Z,282.63
2019-05-29T20:21:57.000Z,282.54
2019-05-29T20:23:19.000Z,282.44
2019-05-29T20:25:21.000Z,282.39
2019-05-29T20:26:43.000Z,282.4
2019-05-29T20:28:44.000Z,282.31
2019-05-29T20:30:06.000Z,282.24
2019-05-29T20:32:07.000Z,282.14
2019-05-29T20:33:29.000Z,282.14
2019-05-29T20:35:32.000Z,282.12
2019-05-29T20:36:55.000Z,282.06
2019-05-29T20:38:56.000Z,282.02
2019-05-29T20:40:19.000Z,282
2019-05-29T20:42:20.000Z,282.02
2019-05-29T20:43:43.000Z,282.08
2019-05-29T20:45:44.000Z,282.02
2019-05-29T20:47:06.000Z,281.93
2019-05-29T20:49:07.000Z,281.88
2019-05-29T20:50:30.000Z,281.95
2019-05-29T20:52:32.000Z,282
2019-05-29T20:53:55.000Z,281.9
2019-05-29T20:55:55.000Z,281.78
2019-05-29T20:57:17.000Z,281.67
2019-05-29T20:59:19.000Z,281.57
2019-05-29T21:00:41.000Z,281.46
2019-05-29T21:02:44.000Z,281.46
2019-05-29T21:04:06.000Z,281.4
2019-05-29T21:06:07.000Z,281.4
2019-05-29T21:07:29.000Z,281.38
2019-05-29T21:09:32.000Z,281.38
2019-05-29T21:10:54.000Z,281.36
2019-05-29T21:12:56.000Z,281.32
2019-05-29T21:14:19.000Z,281.28
2019-05-29T21:16:20.000Z,281.32
2019-05-29T21:17:43.000Z,281.31
2019-05-29T21:19:45.000Z,281.31
2019-05-29T21:21:07.000Z,281.33
2019-05-29T21:23:12.000Z,281.37
2019-05-29T21:24:34.000Z,281.37
2019-05-29T21:26:39.000Z,281.3
2019-05-29T21:28:04.000Z,281.19
2019-05-29T21:30:05.000Z,281.15
2019-05-29T21:31:28.000Z,281.1
2019-05-29T21:33:32.000Z,281.04
2019-05-29T21:34:56.000Z,280.99
2019-05-29T21:37:01.000Z,280.93
2019-05-29T21:38:25.000Z,280.91
2019-05-29T21:40:31.000Z,280.96
2019-05-29T21:41:58.000Z,280.85
2019-05-29T21:44:03.000Z,280.75
2019-05-29T21:45:27.000Z,280.72
2019-05-29T21:47:29.000Z,280.69
2019-05-29T21:48:55.000Z,280.65
2019-05-29T21:50:59.000Z,280.58
2019-05-29T21:52:22.000Z,280.48
2019-05-29T21:54:24.000Z,280.45
2019-05-29T21:55:48.000Z,280.43
2019-05-29T21:57:55.000Z,280.37
2019-05-29T21:59:20.000Z,280.29
2019-05-29T22:01:26.000Z,280.28
2019-05-29T22:02:49.000Z,280.32
2019-05-29T22:04:55.000Z,280.35
2019-05-29T22:06:20.000Z,280.37
2019-05-29T22:09:57.000Z,280.39
2019-05-29T22:11:45.000Z,280.38
2019-05-29T22:13:08.000Z,280.36
2019-05-29T22:15:09.000Z,280.35